Asukamaru — JG5536 — position and weather

sailwx.info

Track history (hours):
 
Tides and Currents Weather Stations Pressure Air Temp Water Temp Dewpoint Dewpoint Depression Visibility Wind Speed Wind Dir Waves Ship Positions

Asukamaru

Last reported at 2018-Jul-19 09:38 UTC. Time now 2018-Jul-19 19:19 UTC.
Position N 35°38' E 139°46'.

Length 31 m; draft 3 m.

Type: Tug. MMSI: 431001145.

Date/timePositionNaut miles runAvg speedWind from/ knotsBaromVisibWave heightAir tempDewpointWater temp
2018-Jul-19 09:38N 35°38' E 139°46'110.9
2018-Jul-19 09:30N 35°37' E 139°46'1 2.3
2018-Jul-19 08:55N 35°36' E 139°47'1 1.5
2018-Jul-19 08:21N 35°35' E 139°48'2 3.8
2018-Jul-19 07:56N 35°37' E 139°47'1 2.8
2018-Jul-19 07:28N 35°38' E 139°46'1 1.4
2018-Jul-19 06:55N 35°38' E 139°45'0 0.0
2018-Jul-19 06:30N 35°38' E 139°45'0 0.2
2018-Jul-19 03:17N 35°38' E 139°46'3 2.9
2018-Jul-19 02:12N 35°37' E 139°49'1 4.0
2018-Jul-19 01:59N 35°36' E 139°50'2 3.2
2018-Jul-19 01:24N 35°37' E 139°48'2 0.1
2018-Jul-17 22:36N 35°38' E 139°46'111.4
2018-Jul-17 22:29N 35°37' E 139°46'1 1.4
2018-Jul-17 22:00N 35°37' E 139°46'2 3.7
2018-Jul-17 21:30N 35°35' E 139°47'0 0.6
2018-Jul-17 20:58N 35°35' E 139°48'2 2.0
2018-Jul-17 20:09N 35°36' E 139°46'1 7.4
2018-Jul-17 20:00N 35°37' E 139°46'0 0.4
2018-Jul-17 19:30N 35°37' E 139°46'1 0.1
2018-Jul-17 12:02N 35°38' E 139°45'1 5.6
2018-Jul-17 11:55N 35°38' E 139°46'0 0.4
2018-Jul-17 11:30N 35°37' E 139°46'3 5.1
2018-Jul-17 10:59N 35°35' E 139°48'0 0.3
2018-Jul-17 10:30N 35°35' E 139°48'2 2.8
2018-Jul-17 09:57N 35°36' E 139°47'0 0.9
2018-Jul-17 09:29N 35°37' E 139°46'2 0.7
2018-Jul-17 07:19N 35°38' E 139°46'1 2.8
2018-Jul-17 06:53N 35°39' E 139°47'1 0.2
2018-Jul-17 00:16N 35°38' E 139°46'2 2.2
2018-Jul-16 23:14N 35°37' E 139°48'0 1.8
2018-Jul-16 23:00N 35°36' E 139°48'3 5.2
2018-Jul-16 22:30N 35°34' E 139°49'0 0.5
2018-Jul-16 22:00N 35°34' E 139°49'1 2.2
2018-Jul-16 21:24N 35°35' E 139°48'2 4.6
2018-Jul-16 20:59N 35°37' E 139°47'1 2.4
2018-Jul-16 20:30N 35°37' E 139°46'1 0.0
2018-Jul-15 08:23N 35°38' E 139°46'2 4.9
2018-Jul-15 08:00N 35°37' E 139°47'0 0.3
2018-Jul-15 07:27N 35°36' E 139°47'1 1.6
2018-Jul-15 07:00N 35°37' E 139°46'1 0.4
2018-Jul-15 04:25N 35°38' E 139°46'2 3.1
2018-Jul-15 03:47N 35°36' E 139°47'1 4.0
2018-Jul-15 03:30N 35°35' E 139°47'1 0.4
2018-Jul-15 01:16N 35°36' E 139°47'0 0.0
2018-Jul-15 01:00N 35°36' E 139°47'0 0.0
2018-Jul-15 00:26N 35°36' E 139°47'0 0.0
2018-Jul-14 23:54N 35°36' E 139°47'0 0.1
2018-Jul-14 23:19N 35°36' E 139°47'1 1.9
2018-Jul-14 22:57N 35°36' E 139°47'2 4.5
2018-Jul-14 22:25N 35°34' E 139°49'4 8.0
2018-Jul-14 21:57N 35°37' E 139°46'1 0.1
2018-Jul-14 11:03N 35°38' E 139°46'111.4
2018-Jul-14 11:00N 35°37' E 139°46'0 0.5
2018-Jul-14 10:19N 35°37' E 139°46'0 0.1
2018-Jul-14 09:35N 35°37' E 139°46'1 8.4
2018-Jul-14 09:30N 35°37' E 139°46'1 0.4
2018-Jul-14 07:30N 35°38' E 139°46'2 4.2
2018-Jul-14 06:55N 35°36' E 139°48'2 4.9
2018-Jul-14 06:27N 35°38' E 139°46'0 0.1
2018-Jul-13 23:14N 35°38' E 139°46'1 4.9
2018-Jul-13 22:55N 35°37' E 139°46'1 1.2
2018-Jul-13 22:23N 35°36' E 139°47'3 6.3
2018-Jul-13 21:58N 35°34' E 139°49'2 3.5
2018-Jul-13 21:27N 35°35' E 139°47'2 0.1
2018-Jul-13 05:56N 35°37' E 139°46'2 3.1
2018-Jul-13 05:17N 35°36' E 139°47'2 5.7
2018-Jul-13 05:00N 35°35' E 139°48'1 1.3
2018-Jul-13 04:22N 35°35' E 139°48'3 0.1
2018-Jul-12 09:56N 35°37' E 139°46'1 2.2
2018-Jul-12 09:30N 35°37' E 139°47'0 0.7
2018-Jul-12 08:59N 35°37' E 139°46'0 0.7
2018-Jul-12 08:28N 35°37' E 139°46'0 0.2
2018-Jul-12 07:58N 35°37' E 139°46'1 0.2
2018-Jul-11 23:39N 35°38' E 139°46'210.5
2018-Jul-11 23:30N 35°37' E 139°46'1 1.4
2018-Jul-11 22:49N 35°37' E 139°47'1 2.4
2018-Jul-11 22:27N 35°36' E 139°48'2 4.9
2018-Jul-11 21:58N 35°34' E 139°49'3 1.9
2018-Jul-11 20:30N 35°36' E 139°46'1 1.7
2018-Jul-11 19:59N 35°37' E 139°46'1 0.0
2018-Jul-10 22:26N 35°38' E 139°46'2 4.3
2018-Jul-10 21:53N 35°36' E 139°47'2 5.3
2018-Jul-10 21:30N 35°34' E 139°49'3 5.4
2018-Jul-10 20:59N 35°37' E 139°47'1 2.0
2018-Jul-10 20:29N 35°37' E 139°46'1 0.0
2018-Jul-09 19:16N 35°38' E 139°46'2 2.9
2018-Jul-09 18:44N 35°37' E 139°47'0 0.4
2018-Jul-09 18:30N 35°37' E 139°47'0 0.3
2018-Jul-09 18:01N 35°37' E 139°47'2 3.9
2018-Jul-09 17:30N 35°35' E 139°48'3 5.5
2018-Jul-09 17:00N 35°33' E 139°50'1 0.7
2018-Jul-09 15:13N 35°34' E 139°51'310.7
2018-Jul-09 14:55N 35°35' E 139°47'0 0.9
2018-Jul-09 14:28N 35°35' E 139°47'0 0.0
2018-Jul-09 14:00N 35°35' E 139°47'0 0.0
2018-Jul-09 13:30N 35°35' E 139°47'0 0.0
2018-Jul-09 13:00N 35°35' E 139°47'0 0.0
2018-Jul-09 12:31N 35°35' E 139°47'0 0.0
2018-Jul-09 11:58N 35°35' E 139°47'0 0.0
2018-Jul-09 11:30N 35°35' E 139°47'0 0.0
2018-Jul-09 11:00N 35°35' E 139°47'0 0.0
2018-Jul-09 10:30N 35°35' E 139°47'0 0.0
2018-Jul-09 10:00N 35°35' E 139°47'  
Track history (hours):
 
Tides and Currents Weather Stations Pressure Air Temp Water Temp Dewpoint Dewpoint Depression Visibility Wind Speed Wind Dir Waves Ship Positions

Asukamaru

Last reported at 2018-Jul-19 09:38 UTC. Time now 2018-Jul-19 19:19 UTC.
Position N 35°38' E 139°46'.

Length 31 m; draft 3 m.

Type: Tug. MMSI: 431001145.

Date/timePositionNaut miles runAvg speedWind from/ knotsBaromVisibWave heightAir tempDewpointWater temp
2018-Jul-19 09:38N 35°38' E 139°46'110.9
2018-Jul-19 09:30N 35°37' E 139°46'1 2.3
2018-Jul-19 08:55N 35°36' E 139°47'1 1.5
2018-Jul-19 08:21N 35°35' E 139°48'2 3.8
2018-Jul-19 07:56N 35°37' E 139°47'1 2.8
2018-Jul-19 07:28N 35°38' E 139°46'1 1.4
2018-Jul-19 06:55N 35°38' E 139°45'0 0.0
2018-Jul-19 06:30N 35°38' E 139°45'0 0.2
2018-Jul-19 03:17N 35°38' E 139°46'3 2.9
2018-Jul-19 02:12N 35°37' E 139°49'1 4.0
2018-Jul-19 01:59N 35°36' E 139°50'2 3.2
2018-Jul-19 01:24N 35°37' E 139°48'2 0.1
2018-Jul-17 22:36N 35°38' E 139°46'111.4
2018-Jul-17 22:29N 35°37' E 139°46'1 1.4
2018-Jul-17 22:00N 35°37' E 139°46'2 3.7
2018-Jul-17 21:30N 35°35' E 139°47'0 0.6
2018-Jul-17 20:58N 35°35' E 139°48'2 2.0
2018-Jul-17 20:09N 35°36' E 139°46'1 7.4
2018-Jul-17 20:00N 35°37' E 139°46'0 0.4
2018-Jul-17 19:30N 35°37' E 139°46'1 0.1
2018-Jul-17 12:02N 35°38' E 139°45'1 5.6
2018-Jul-17 11:55N 35°38' E 139°46'0 0.4
2018-Jul-17 11:30N 35°37' E 139°46'3 5.1
2018-Jul-17 10:59N 35°35' E 139°48'0 0.3
2018-Jul-17 10:30N 35°35' E 139°48'2 2.8
2018-Jul-17 09:57N 35°36' E 139°47'0 0.9
2018-Jul-17 09:29N 35°37' E 139°46'2 0.7
2018-Jul-17 07:19N 35°38' E 139°46'1 2.8
2018-Jul-17 06:53N 35°39' E 139°47'1 0.2
2018-Jul-17 00:16N 35°38' E 139°46'2 2.2
2018-Jul-16 23:14N 35°37' E 139°48'0 1.8
2018-Jul-16 23:00N 35°36' E 139°48'3 5.2
2018-Jul-16 22:30N 35°34' E 139°49'0 0.5
2018-Jul-16 22:00N 35°34' E 139°49'1 2.2
2018-Jul-16 21:24N 35°35' E 139°48'2 4.6
2018-Jul-16 20:59N 35°37' E 139°47'1 2.4
2018-Jul-16 20:30N 35°37' E 139°46'1 0.0
2018-Jul-15 08:23N 35°38' E 139°46'2 4.9
2018-Jul-15 08:00N 35°37' E 139°47'0 0.3
2018-Jul-15 07:27N 35°36' E 139°47'1 1.6
2018-Jul-15 07:00N 35°37' E 139°46'1 0.4
2018-Jul-15 04:25N 35°38' E 139°46'2 3.1
2018-Jul-15 03:47N 35°36' E 139°47'1 4.0
2018-Jul-15 03:30N 35°35' E 139°47'1 0.4
2018-Jul-15 01:16N 35°36' E 139°47'0 0.0
2018-Jul-15 01:00N 35°36' E 139°47'0 0.0
2018-Jul-15 00:26N 35°36' E 139°47'0 0.0
2018-Jul-14 23:54N 35°36' E 139°47'0 0.1
2018-Jul-14 23:19N 35°36' E 139°47'1 1.9
2018-Jul-14 22:57N 35°36' E 139°47'2 4.5
2018-Jul-14 22:25N 35°34' E 139°49'4 8.0
2018-Jul-14 21:57N 35°37' E 139°46'1 0.1
2018-Jul-14 11:03N 35°38' E 139°46'111.4
2018-Jul-14 11:00N 35°37' E 139°46'0 0.5
2018-Jul-14 10:19N 35°37' E 139°46'0 0.1
2018-Jul-14 09:35N 35°37' E 139°46'1 8.4
2018-Jul-14 09:30N 35°37' E 139°46'1 0.4
2018-Jul-14 07:30N 35°38' E 139°46'2 4.2
2018-Jul-14 06:55N 35°36' E 139°48'2 4.9
2018-Jul-14 06:27N 35°38' E 139°46'0 0.1
2018-Jul-13 23:14N 35°38' E 139°46'1 4.9
2018-Jul-13 22:55N 35°37' E 139°46'1 1.2
2018-Jul-13 22:23N 35°36' E 139°47'3 6.3
2018-Jul-13 21:58N 35°34' E 139°49'2 3.5
2018-Jul-13 21:27N 35°35' E 139°47'2 0.1
2018-Jul-13 05:56N 35°37' E 139°46'2 3.1
2018-Jul-13 05:17N 35°36' E 139°47'2 5.7
2018-Jul-13 05:00N 35°35' E 139°48'1 1.3
2018-Jul-13 04:22N 35°35' E 139°48'3 0.1
2018-Jul-12 09:56N 35°37' E 139°46'1 2.2
2018-Jul-12 09:30N 35°37' E 139°47'0 0.7
2018-Jul-12 08:59N 35°37' E 139°46'0 0.7
2018-Jul-12 08:28N 35°37' E 139°46'0 0.2
2018-Jul-12 07:58N 35°37' E 139°46'1 0.2
2018-Jul-11 23:39N 35°38' E 139°46'210.5
2018-Jul-11 23:30N 35°37' E 139°46'1 1.4
2018-Jul-11 22:49N 35°37' E 139°47'1 2.4
2018-Jul-11 22:27N 35°36' E 139°48'2 4.9
2018-Jul-11 21:58N 35°34' E 139°49'3 1.9
2018-Jul-11 20:30N 35°36' E 139°46'1 1.7
2018-Jul-11 19:59N 35°37' E 139°46'1 0.0
2018-Jul-10 22:26N 35°38' E 139°46'2 4.3
2018-Jul-10 21:53N 35°36' E 139°47'2 5.3
2018-Jul-10 21:30N 35°34' E 139°49'3 5.4
2018-Jul-10 20:59N 35°37' E 139°47'1 2.0
2018-Jul-10 20:29N 35°37' E 139°46'1 0.0
2018-Jul-09 19:16N 35°38' E 139°46'2 2.9
2018-Jul-09 18:44N 35°37' E 139°47'0 0.4
2018-Jul-09 18:30N 35°37' E 139°47'0 0.3
2018-Jul-09 18:01N 35°37' E 139°47'2 3.9
2018-Jul-09 17:30N 35°35' E 139°48'3 5.5
2018-Jul-09 17:00N 35°33' E 139°50'1 0.7
2018-Jul-09 15:13N 35°34' E 139°51'310.7
2018-Jul-09 14:55N 35°35' E 139°47'0 0.9
2018-Jul-09 14:28N 35°35' E 139°47'0 0.0
2018-Jul-09 14:00N 35°35' E 139°47'0 0.0
2018-Jul-09 13:30N 35°35' E 139°47'0 0.0
2018-Jul-09 13:00N 35°35' E 139°47'0 0.0
2018-Jul-09 12:31N 35°35' E 139°47'0 0.0
2018-Jul-09 11:58N 35°35' E 139°47'0 0.0
2018-Jul-09 11:30N 35°35' E 139°47'0 0.0
2018-Jul-09 11:00N 35°35' E 139°47'0 0.0
2018-Jul-09 10:30N 35°35' E 139°47'0 0.0
2018-Jul-09 10:00N 35°35' E 139°47'  

Dump ship's entire track history